createdAt,value
2022-08-05T00:01:36.412Z,16.52
2022-08-05T00:04:38.213Z,16.51
2022-08-05T00:08:01.010Z,16.44
2022-08-05T00:10:36.191Z,16.45
2022-08-05T00:13:18.563Z,16.43
2022-08-05T00:16:08.515Z,16.46
2022-08-05T00:18:51.378Z,16.45
2022-08-05T00:21:42.707Z,16.48
2022-08-05T00:24:30.974Z,16.49
2022-08-05T00:27:19.159Z,16.48
2022-08-05T00:30:03.155Z,16.54
2022-08-05T00:32:51.146Z,16.58
2022-08-05T00:35:33.407Z,16.62
2022-08-05T00:38:33.763Z,16.61
2022-08-05T00:41:22.127Z,16.62
2022-08-05T00:44:13.510Z,16.59
2022-08-05T00:47:02.110Z,16.58
2022-08-05T00:49:52.781Z,16.56
2022-08-05T00:52:34.117Z,16.52
2022-08-05T00:55:22.269Z,16.46
2022-08-05T00:58:11.306Z,16.44
2022-08-05T01:00:52.868Z,16.46
2022-08-05T01:03:41.164Z,16.46
2022-08-05T01:06:32.581Z,16.48
2022-08-05T01:09:14.117Z,16.43
2022-08-05T01:12:09.282Z,16.48
2022-08-05T01:15:05.351Z,16.46
2022-08-05T01:17:53.776Z,16.46
2022-08-05T01:20:55.083Z,16.42
2022-08-05T01:23:55.147Z,16.40
2022-08-05T01:26:50.225Z,16.38
2022-08-05T01:29:46.068Z,16.46
2022-08-05T01:32:40.058Z,16.46
2022-08-05T01:35:51.540Z,16.47
2022-08-05T01:38:51.052Z,16.52
2022-08-05T01:41:44.458Z,16.58
2022-08-05T01:44:34.449Z,16.64
2022-08-05T01:47:38.881Z,16.61
2022-08-05T01:50:32.305Z,16.55
2022-08-05T01:53:18.030Z,16.50
2022-08-05T01:58:10.723Z,16.48
2022-08-05T01:59:31.030Z,16.24
2022-08-05T02:02:28.471Z,16.34
2022-08-05T02:05:14.222Z,16.32
2022-08-05T02:08:04.011Z,16.29
2022-08-05T02:10:59.201Z,16.27
2022-08-05T02:13:53.295Z,16.23
2022-08-05T02:16:47.072Z,16.24
2022-08-05T02:19:41.352Z,16.18
2022-08-05T02:22:39.012Z,16.13
2022-08-05T02:25:27.229Z,16.10
2022-08-05T02:28:28.974Z,16.04
2022-08-05T02:31:15.150Z,16.06
2022-08-05T02:34:06.994Z,16.04
2022-08-05T02:36:57.149Z,16.04
2022-08-05T02:39:51.567Z,15.99
2022-08-05T02:42:36.166Z,16.01
2022-08-05T02:45:25.961Z,15.98
2022-08-05T02:48:12.486Z,15.97
2022-08-05T02:51:01.952Z,15.91
2022-08-05T02:53:47.376Z,15.91
2022-08-05T02:56:46.044Z,15.88
2022-08-05T02:59:47.860Z,15.85
2022-08-05T03:02:43.205Z,15.81
2022-08-05T03:06:54.112Z,15.81
2022-08-05T03:08:30.000Z,15.77
2022-08-05T03:11:54.671Z,15.76
2022-08-05T03:14:21.153Z,15.72
2022-08-05T03:17:09.231Z,15.72
2022-08-05T03:19:58.521Z,15.70
2022-08-05T03:22:44.018Z,15.67
2022-08-05T03:26:04.321Z,15.64
2022-08-05T03:28:37.948Z,15.63
2022-08-05T03:31:57.417Z,15.62
2022-08-05T03:34:36.873Z,15.64
2022-08-05T03:37:26.449Z,15.61
2022-08-05T03:40:12.103Z,15.61
2022-08-05T03:43:01.355Z,15.60
2022-08-05T03:45:59.054Z,15.59
2022-08-05T03:48:54.853Z,15.58
2022-08-05T03:52:38.732Z,15.55
2022-08-05T03:56:01.492Z,15.55
2022-08-05T03:58:04.936Z,15.51
2022-08-05T04:00:51.372Z,15.51
2022-08-05T04:04:10.155Z,15.51
2022-08-05T04:06:51.149Z,15.52
2022-08-05T04:09:53.828Z,15.52
2022-08-05T04:15:33.207Z,15.47
2022-08-05T04:18:22.505Z,15.48
2022-08-05T04:21:06.806Z,15.49
2022-08-05T04:24:05.931Z,15.43
2022-08-05T04:26:48.077Z,15.40
2022-08-05T04:29:35.927Z,15.41
2022-08-05T04:32:19.985Z,15.38
2022-08-05T04:35:19.777Z,15.37
2022-08-05T04:38:06.837Z,15.36
2022-08-05T04:40:56.783Z,15.34
2022-08-05T04:43:48.245Z,15.30
2022-08-05T04:46:40.775Z,15.34
2022-08-05T04:50:01.917Z,15.32
2022-08-05T04:52:49.760Z,15.31
2022-08-05T04:56:15.168Z,15.34
2022-08-05T04:58:40.742Z,15.34
2022-08-05T05:02:06.022Z,15.36
2022-08-05T05:04:30.082Z,15.33
2022-08-05T05:07:18.745Z,15.34
2022-08-05T05:10:09.989Z,15.38
2022-08-05T05:12:57.816Z,15.41
2022-08-05T05:15:59.345Z,15.46
2022-08-05T05:19:09.210Z,15.28
2022-08-05T05:21:50.926Z,15.44
2022-08-05T05:24:59.014Z,15.51
2022-08-05T05:27:48.659Z,15.57
2022-08-05T05:30:43.793Z,15.62
2022-08-05T05:33:31.370Z,15.65
2022-08-05T05:36:38.712Z,15.70
2022-08-05T05:39:20.011Z,15.75
2022-08-05T05:42:07.696Z,15.82
2022-08-05T05:44:59.518Z,15.88
2022-08-05T05:48:05.518Z,15.93
2022-08-05T05:50:51.750Z,16.05
2022-08-05T05:53:54.597Z,16.16
2022-08-05T05:56:42.840Z,16.25
2022-08-05T05:59:31.302Z,16.40
2022-08-05T06:02:31.007Z,17.07
2022-08-05T06:05:23.907Z,18.64
2022-08-05T06:08:04.650Z,19.07
2022-08-05T06:10:49.140Z,18.86
2022-08-05T06:13:50.528Z,19.59
2022-08-05T06:16:42.030Z,20.39
2022-08-05T06:19:34.184Z,21.42
2022-08-05T06:22:33.573Z,22.54
2022-08-05T06:25:59.062Z,23.87
2022-08-05T06:28:30.812Z,24.78
2022-08-05T06:31:17.944Z,25.27
2022-08-05T06:34:09.618Z,24.52
2022-08-05T06:36:58.022Z,23.74
2022-08-05T06:39:48.691Z,23.16
2022-08-05T06:42:30.825Z,22.53
2022-08-05T06:45:20.778Z,22.70
2022-08-05T06:48:44.083Z,22.74
2022-08-05T06:51:23.783Z,22.34
2022-08-05T06:54:18.174Z,23.35
2022-08-05T06:57:56.777Z,24.72
2022-08-05T07:00:22.484Z,25.70
2022-08-05T07:03:12.841Z,26.59
2022-08-05T07:05:53.596Z,26.89
2022-08-05T07:08:47.628Z,26.96
2022-08-05T07:11:31.017Z,27.36
2022-08-05T07:14:37.603Z,27.63
2022-08-05T07:18:00.692Z,27.96
2022-08-05T07:20:37.077Z,27.95
2022-08-05T07:23:29.718Z,27.99
2022-08-05T07:26:22.556Z,28.03
2022-08-05T07:29:03.800Z,28.13
2022-08-05T07:31:54.875Z,28.44
2022-08-05T07:34:42.038Z,28.85
2022-08-05T07:37:37.729Z,28.87
2022-08-05T07:40:32.647Z,28.93
2022-08-05T07:43:20.427Z,28.84
2022-08-05T07:46:02.352Z,28.65
2022-08-05T07:49:05.015Z,28.54
2022-08-05T07:51:55.280Z,28.59
2022-08-05T07:54:38.623Z,28.88
2022-08-05T07:57:41.837Z,29.12
2022-08-05T08:00:30.753Z,29.43
2022-08-05T08:03:21.636Z,29.46
2022-08-05T08:06:04.729Z,29.60
2022-08-05T08:08:53.525Z,29.80
2022-08-05T08:11:47.451Z,29.59
2022-08-05T08:14:38.477Z,29.53
2022-08-05T08:17:29.494Z,29.38
2022-08-05T08:20:43.507Z,29.39
2022-08-05T08:24:03.904Z,29.35
2022-08-05T08:26:29.779Z,29.52
2022-08-05T08:29:29.579Z,29.73
2022-08-05T08:32:25.742Z,29.70
2022-08-05T08:35:13.578Z,29.51
2022-08-05T08:38:08.488Z,29.46
2022-08-05T08:40:55.210Z,29.06
2022-08-05T08:45:17.202Z,29.35
2022-08-05T08:46:45.969Z,29.43
2022-08-05T08:50:06.103Z,29.54
2022-08-05T08:52:47.269Z,29.39
2022-08-05T08:56:02.848Z,29.21
2022-08-05T08:58:48.652Z,28.94
2022-08-05T09:01:30.683Z,28.90
2022-08-05T09:04:21.421Z,28.76
2022-08-05T09:07:19.610Z,28.98
2022-08-05T09:10:18.431Z,28.61
2022-08-05T09:13:04.781Z,27.97
2022-08-05T09:15:55.441Z,27.47
2022-08-05T09:18:42.632Z,27.14
2022-08-05T09:22:22.000Z,27.64
2022-08-05T09:24:36.403Z,27.62
2022-08-05T09:27:18.734Z,27.27
2022-08-05T09:30:25.496Z,26.82
2022-08-05T09:33:10.605Z,26.35
2022-08-05T09:36:16.167Z,26.13
2022-08-05T09:39:18.232Z,26.54
2022-08-05T09:42:23.436Z,26.69
2022-08-05T09:46:04.932Z,26.63
2022-08-05T09:48:35.391Z,26.37
2022-08-05T09:51:23.646Z,26.64
2022-08-05T09:54:05.347Z,26.95
2022-08-05T09:56:52.352Z,26.72
2022-08-05T09:59:40.383Z,27.06
2022-08-05T10:02:33.384Z,27.01
2022-08-05T10:05:26.832Z,26.79
2022-08-05T10:08:35.289Z,26.71
2022-08-05T10:11:18.470Z,26.34
2022-08-05T10:14:06.569Z,25.85
2022-08-05T10:16:52.977Z,25.50
2022-08-05T10:20:04.338Z,25.39
2022-08-05T10:22:50.698Z,25.06
2022-08-05T10:25:39.628Z,25.05
2022-08-05T10:28:29.071Z,25.19
2022-08-05T10:32:49.685Z,25.19
2022-08-05T10:34:25.919Z,25.30
2022-08-05T10:37:27.311Z,25.45
2022-08-05T10:40:37.478Z,25.46
2022-08-05T10:43:35.882Z,25.48
2022-08-05T10:46:26.298Z,25.59
2022-08-05T10:49:26.756Z,25.86
2022-08-05T10:52:22.363Z,25.92
2022-08-05T10:55:07.368Z,25.28
2022-08-05T10:57:57.274Z,25.00
2022-08-05T11:00:42.133Z,24.81
2022-08-05T11:03:31.370Z,24.68
2022-08-05T11:06:21.519Z,24.93
2022-08-05T11:09:39.174Z,25.22
2022-08-05T11:12:55.673Z,24.72
2022-08-05T11:15:59.173Z,24.91
2022-08-05T11:18:48.357Z,25.30
2022-08-05T11:21:48.680Z,25.85
2022-08-05T11:24:38.829Z,25.97
2022-08-05T11:27:51.215Z,25.80
2022-08-05T11:31:54.115Z,25.40
2022-08-05T11:34:51.526Z,25.46
2022-08-05T11:38:30.691Z,25.47
2022-08-05T11:41:58.231Z,25.58
2022-08-05T11:44:40.517Z,25.75
2022-08-05T11:47:48.932Z,26.14
2022-08-05T11:50:33.194Z,26.25
2022-08-05T11:53:15.472Z,26.47
2022-08-05T11:56:04.307Z,26.29
2022-08-05T11:58:52.798Z,26.39
2022-08-05T12:01:41.404Z,26.04
2022-08-05T12:04:29.170Z,25.70
2022-08-05T12:08:10.192Z,25.65
2022-08-05T12:10:38.465Z,25.36
2022-08-05T12:13:47.650Z,25.33
2022-08-05T12:16:32.404Z,25.41
2022-08-05T12:20:17.114Z,25.40
2022-08-05T12:22:25.422Z,25.50
2022-08-05T12:25:16.538Z,25.24
2022-08-05T12:27:57.400Z,25.13
2022-08-05T12:30:50.158Z,25.36
2022-08-05T12:33:36.634Z,25.60
2022-08-05T12:36:26.175Z,25.72
2022-08-05T12:39:09.434Z,25.64
2022-08-05T12:41:58.262Z,25.56
2022-08-05T12:44:39.454Z,25.38
2022-08-05T12:47:36.153Z,25.53
2022-08-05T12:50:25.325Z,25.59
2022-08-05T12:53:07.121Z,25.70
2022-08-05T12:55:57.350Z,25.80
2022-08-05T12:58:52.284Z,25.75
2022-08-05T13:02:01.666Z,25.70
2022-08-05T13:04:54.284Z,25.59
2022-08-05T13:07:59.751Z,25.61
2022-08-05T13:10:59.101Z,25.47
2022-08-05T13:14:04.637Z,25.43
2022-08-05T13:16:56.582Z,25.66
2022-08-05T13:19:51.760Z,25.75
2022-08-05T13:22:35.297Z,25.72
2022-08-05T13:25:51.982Z,25.67
2022-08-05T13:28:34.063Z,25.90
2022-08-05T13:32:03.938Z,25.87
2022-08-05T13:34:41.843Z,25.94
2022-08-05T13:37:34.432Z,25.85
2022-08-05T13:40:36.850Z,25.88
2022-08-05T13:43:44.396Z,25.75
2022-08-05T13:46:43.825Z,25.82
2022-08-05T13:49:37.053Z,25.69
2022-08-05T13:52:41.215Z,25.74
2022-08-05T13:55:41.692Z,25.84
2022-08-05T13:58:31.215Z,25.44
2022-08-05T14:01:19.024Z,25.18
2022-08-05T14:04:26.742Z,25.09
2022-08-05T14:07:56.414Z,25.11
2022-08-05T14:10:28.174Z,24.89
2022-08-05T14:13:18.000Z,24.87
2022-08-05T14:16:04.768Z,24.94
2022-08-05T14:18:57.073Z,25.05
2022-08-05T14:22:09.688Z,25.11
2022-08-05T14:24:47.994Z,25.36
2022-08-05T14:27:31.259Z,25.37
2022-08-05T14:30:20.790Z,25.31
2022-08-05T14:33:09.173Z,25.25
2022-08-05T14:36:04.001Z,25.59
2022-08-05T14:38:47.193Z,25.58
2022-08-05T14:41:36.048Z,25.30
2022-08-05T14:44:20.346Z,25.27
2022-08-05T14:47:09.960Z,25.47
2022-08-05T14:49:59.827Z,25.56
2022-08-05T14:52:53.493Z,25.63
2022-08-05T14:55:40.310Z,25.53
2022-08-05T14:58:27.963Z,25.56
2022-08-05T15:01:15.578Z,25.49
2022-08-05T15:04:05.353Z,25.51
2022-08-05T15:06:49.406Z,25.61
2022-08-05T15:09:52.026Z,25.73
2022-08-05T15:13:00.239Z,25.42
2022-08-05T15:15:55.747Z,25.21
2022-08-05T15:18:43.921Z,25.10
2022-08-05T15:21:35.330Z,25.00
2022-08-05T15:24:16.907Z,24.88
2022-08-05T15:27:05.240Z,24.67
2022-08-05T15:29:51.907Z,24.71
2022-08-05T15:32:41.905Z,24.71
2022-08-05T15:35:23.136Z,24.44
2022-08-05T15:38:47.856Z,24.14
2022-08-05T15:41:24.432Z,24.13
2022-08-05T15:44:13.206Z,24.17
2022-08-05T15:46:55.953Z,24.10
2022-08-05T15:49:56.682Z,24.19
2022-08-05T15:52:54.415Z,24.10
2022-08-05T15:56:02.090Z,23.89
2022-08-05T15:58:44.905Z,23.96
2022-08-05T16:01:29.474Z,24.01
2022-08-05T16:04:28.883Z,23.82
2022-08-05T16:07:11.087Z,23.65
2022-08-05T16:09:59.915Z,23.47
2022-08-05T16:12:48.870Z,23.45
2022-08-05T16:15:43.855Z,23.39
2022-08-05T16:18:33.195Z,23.47
2022-08-05T16:21:16.079Z,23.37
2022-08-05T16:24:04.834Z,23.28
2022-08-05T16:27:07.277Z,23.11
2022-08-05T16:29:50.226Z,23.21
2022-08-05T16:32:38.846Z,23.18
2022-08-05T16:35:28.433Z,23.12
2022-08-05T16:38:25.173Z,23.24
2022-08-05T16:41:21.644Z,23.16
2022-08-05T16:44:17.804Z,23.03
2022-08-05T16:47:06.159Z,22.92
2022-08-05T16:50:21.802Z,22.78
2022-08-05T16:56:05.034Z,22.58
2022-08-05T16:58:55.786Z,22.65
2022-08-05T17:01:54.950Z,22.73
2022-08-05T17:04:44.782Z,22.58
2022-08-05T17:07:38.888Z,22.57
2022-08-05T17:10:30.665Z,22.45
2022-08-05T17:13:16.638Z,22.20
2022-08-05T17:16:26.725Z,21.82
2022-08-05T17:19:12.762Z,21.67
2022-08-05T17:22:01.041Z,21.48
2022-08-05T17:24:46.431Z,21.55
2022-08-05T17:27:44.746Z,21.57
2022-08-05T17:30:29.094Z,21.45
2022-08-05T17:33:17.939Z,21.47
2022-08-05T17:36:08.081Z,21.38
2022-08-05T17:38:57.770Z,21.25
2022-08-05T17:42:17.768Z,21.18
2022-08-05T17:44:50.167Z,21.08
2022-08-05T17:47:39.945Z,21.18
2022-08-05T17:50:27.697Z,21.25
2022-08-05T17:53:28.005Z,21.34
2022-08-05T17:56:18.054Z,21.33
2022-08-05T17:58:58.773Z,21.28
2022-08-05T18:01:49.213Z,21.31
2022-08-05T18:04:50.999Z,21.34
2022-08-05T18:07:42.445Z,21.40
2022-08-05T18:10:24.703Z,21.34
2022-08-05T18:13:13.922Z,21.20
2022-08-05T18:15:54.708Z,21.07
2022-08-05T18:18:48.078Z,21.12
2022-08-05T18:22:08.226Z,21.16
2022-08-05T18:24:40.903Z,21.20
2022-08-05T18:27:21.670Z,21.12
2022-08-05T18:30:10.673Z,21.08
2022-08-05T18:33:00.295Z,21.06
2022-08-05T18:36:03.804Z,21.10
2022-08-05T18:38:49.868Z,21.08
2022-08-05T18:41:58.535Z,20.99
2022-08-05T18:44:49.229Z,20.83
2022-08-05T18:47:44.619Z,20.72
2022-08-05T18:50:47.680Z,20.69
2022-08-05T18:53:45.956Z,20.62
2022-08-05T18:56:40.633Z,20.39
2022-08-05T18:59:43.808Z,20.25
2022-08-05T19:02:24.644Z,20.09
2022-08-05T19:06:05.736Z,20.06
2022-08-05T19:08:18.828Z,19.93
2022-08-05T19:11:07.263Z,19.77
2022-08-05T19:13:50.741Z,19.68
2022-08-05T19:16:51.665Z,19.56
2022-08-05T19:19:39.578Z,19.48
2022-08-05T19:22:34.605Z,19.41
2022-08-05T19:25:30.336Z,19.35
2022-08-05T19:28:27.791Z,19.23
2022-08-05T19:31:21.353Z,19.16
2022-08-05T19:34:03.663Z,19.08
2022-08-05T19:36:45.570Z,18.96
2022-08-05T19:39:46.009Z,18.92
2022-08-05T19:42:39.093Z,18.79
2022-08-05T19:45:21.551Z,18.69
2022-08-05T19:48:15.573Z,18.61
2022-08-05T19:51:10.540Z,18.54
2022-08-05T19:54:26.635Z,18.48
2022-08-05T19:57:13.862Z,18.44
2022-08-05T20:00:06.578Z,18.38
2022-08-05T20:02:48.914Z,18.34
2022-08-05T20:05:42.913Z,18.27
2022-08-05T20:08:24.887Z,18.26
2022-08-05T20:11:12.532Z,18.19
2022-08-05T20:14:12.021Z,18.16
2022-08-05T20:17:12.495Z,18.10
2022-08-05T20:20:09.206Z,18.05
2022-08-05T20:22:52.514Z,18.00
2022-08-05T20:25:40.150Z,17.94
2022-08-05T20:28:28.502Z,17.89
2022-08-05T20:31:16.922Z,17.85
2022-08-05T20:34:04.517Z,17.87
2022-08-05T20:36:46.317Z,17.83
2022-08-05T20:39:37.569Z,17.81
2022-08-05T20:42:25.867Z,17.74
2022-08-05T20:45:10.529Z,17.75
2022-08-05T20:47:59.461Z,17.75
2022-08-05T20:50:47.719Z,17.78
2022-08-05T20:53:40.964Z,17.77
2022-08-05T20:56:28.064Z,17.69
2022-08-05T20:59:19.313Z,17.61
2022-08-05T21:02:08.766Z,17.54
2022-08-05T21:04:57.441Z,17.45
2022-08-05T21:07:50.841Z,17.40
2022-08-05T21:10:41.460Z,17.30
2022-08-05T21:13:46.973Z,17.24
2022-08-05T21:16:48.430Z,17.15
2022-08-05T21:19:47.251Z,17.14
2022-08-05T21:22:31.420Z,17.15
2022-08-05T21:25:13.319Z,17.15
2022-08-05T21:28:01.419Z,17.14
2022-08-05T21:30:51.632Z,17.12
2022-08-05T21:33:36.879Z,17.14
2022-08-05T21:36:29.913Z,17.10
2022-08-05T21:39:26.987Z,17.04
2022-08-05T21:42:31.140Z,16.98
2022-08-05T21:45:25.165Z,16.92
2022-08-05T21:48:27.614Z,16.88
2022-08-05T21:52:16.488Z,16.90
2022-08-05T21:54:30.737Z,16.89
2022-08-05T21:57:31.665Z,16.86
2022-08-05T22:00:23.497Z,16.83
2022-08-05T22:03:15.104Z,16.75
2022-08-05T22:05:58.375Z,16.68
2022-08-05T22:08:46.341Z,16.67
2022-08-05T22:11:34.741Z,16.67
2022-08-05T22:14:35.840Z,16.65
2022-08-05T22:17:25.377Z,16.63
2022-08-05T22:20:13.390Z,16.53
2022-08-05T22:23:22.346Z,16.39
2022-08-05T22:26:39.738Z,16.29
2022-08-05T22:29:26.304Z,16.30
2022-08-05T22:32:18.317Z,16.33
2022-08-05T22:35:06.329Z,16.37
2022-08-05T22:37:59.104Z,16.39
2022-08-05T22:40:41.311Z,16.36
2022-08-05T22:43:37.311Z,16.38
2022-08-05T22:46:23.564Z,16.39
2022-08-05T22:50:17.549Z,16.38
2022-08-05T22:52:32.619Z,16.35
2022-08-05T22:55:24.483Z,16.33
2022-08-05T22:58:07.281Z,16.32
2022-08-05T23:00:59.488Z,16.32
2022-08-05T23:03:58.896Z,16.30
2022-08-05T23:06:47.826Z,16.27
2022-08-05T23:09:57.494Z,16.23
2022-08-05T23:12:39.284Z,16.21
2022-08-05T23:15:20.454Z,16.21
2022-08-05T23:18:11.731Z,16.19
2022-08-05T23:20:57.457Z,16.17
2022-08-05T23:23:46.257Z,16.15
2022-08-05T23:26:27.490Z,16.16
2022-08-05T23:29:17.269Z,16.13
2022-08-05T23:32:07.230Z,16.09
2022-08-05T23:34:58.382Z,16.11
2022-08-05T23:37:40.458Z,16.09
2022-08-05T23:40:32.262Z,16.07
2022-08-05T23:43:25.799Z,16.07
2022-08-05T23:46:25.205Z,16.04
2022-08-05T23:49:16.074Z,16.02
2022-08-05T23:52:28.294Z,15.97
2022-08-05T23:55:18.263Z,15.92
2022-08-05T23:58:06.181Z,15.89
